IGO1871 VOMM-FMEE
Flight info
| Callsign | IGO1871 |
|---|---|
| Flight time | N/A |
| Altitude | 34000 |
| Route | TEGUT2B TEGUT DCT APAVU DCT PUTUR DCT RAMPU DCT HAPUR DCT OSERA DCT MUGBA/N0453F360 DCT RONJI DCT OMBAB DCT LEVLU DCT GESOD/N0446F380 DCT ETLID DCT OKMAR DCT NIBIS NIBIS2R |
| Aircraft | A320/M-SDE3FGHIRWY/LB1 |
Departure
| Time | 2026-05-04 06:44 |
|---|---|
| Airport | Chennai International Airport (VOMM) |
Arrival
| Time | N/A |
|---|---|
| Airport | Roland Garros Airport (FMEE) |
| Time | Latitude | Longitude | Altitude | Speed | Heading |
|---|---|---|---|---|---|
| 2026-05-04 06:01 | 12.98395 | 80.16443 | 55 ft | 0 kts | 158° |
| 2026-05-04 06:30 | 12.98400 | 80.16442 | 47 ft | 3 kts | 158° |
| 2026-05-04 06:31 | 12.98417 | 80.16435 | 53 ft | 1 kts | 159° |
| 2026-05-04 06:31 | 12.98434 | 80.16427 | 48 ft | 3 kts | 142° |
| 2026-05-04 06:31 | 12.98448 | 80.16412 | 52 ft | 3 kts | 113° |
| 2026-05-04 06:31 | 12.98452 | 80.16393 | 49 ft | 3 kts | 80° |
| 2026-05-04 06:32 | 12.98450 | 80.16383 | 50 ft | 0 kts | 70° |
| 2026-05-04 06:34 | 12.98452 | 80.16387 | 50 ft | 2 kts | 70° |
| 2026-05-04 06:35 | 12.98457 | 80.16403 | 48 ft | 3 kts | 70° |
| 2026-05-04 06:36 | 12.98690 | 80.16742 | 53 ft | 11 kts | 338° |
| 2026-05-04 06:37 | 12.98757 | 80.16747 | 55 ft | 11 kts | 53° |
| 2026-05-04 06:37 | 12.98789 | 80.16822 | 55 ft | 12 kts | 68° |
| 2026-05-04 06:37 | 12.98827 | 80.16923 | 55 ft | 19 kts | 69° |
| 2026-05-04 06:37 | 12.98882 | 80.17069 | 52 ft | 25 kts | 69° |
| 2026-05-04 06:38 | 12.98949 | 80.17237 | 55 ft | 10 kts | 59° |
| 2026-05-04 06:38 | 12.98992 | 80.17324 | 52 ft | 17 kts | 70° |
| 2026-05-04 06:40 | 12.99350 | 80.18098 | 54 ft | 23 kts | 68° |
| 2026-05-04 06:40 | 12.99362 | 80.18227 | 58 ft | 20 kts | 78° |
| 2026-05-04 06:40 | 12.99438 | 80.18329 | 50 ft | 6 kts | 43° |
| 2026-05-04 06:40 | 12.99478 | 80.18365 | 54 ft | 8 kts | 41° |
| 2026-05-04 06:41 | 12.99528 | 80.18409 | 48 ft | 11 kts | 33° |
| 2026-05-04 06:41 | 12.99581 | 80.18395 | 56 ft | 7 kts | 289° |
| 2026-05-04 06:41 | 12.99558 | 80.18340 | 53 ft | 10 kts | 249° |
| 2026-05-04 06:41 | 12.99556 | 80.18336 | 56 ft | 0 kts | 249° |
| 2026-05-04 06:42 | 12.99520 | 80.18241 | 54 ft | 45 kts | 248° |
| 2026-05-04 06:42 | 12.99333 | 80.17744 | 54 ft | 102 kts | 249° |
| 2026-05-04 06:42 | 12.99022 | 80.16909 | 54 ft | 146 kts | 249° |
| 2026-05-04 06:44 | 12.95678 | 80.07923 | 2143 ft | 255 kts | 249° |
| 2026-05-04 06:44 | 12.95013 | 80.06181 | 2746 ft | 261 kts | 249° |
| 2026-05-04 06:44 | 12.94364 | 80.04469 | 3500 ft | 262 kts | 250° |
| 2026-05-04 06:45 | 12.93701 | 80.02712 | 4223 ft | 265 kts | 249° |
| 2026-05-04 06:45 | 12.93029 | 80.00940 | 4947 ft | 267 kts | 249° |
| 2026-05-04 06:45 | 12.92345 | 79.99140 | 5574 ft | 273 kts | 249° |
| 2026-05-04 06:45 | 12.91658 | 79.97338 | 5779 ft | 274 kts | 249° |
| 2026-05-04 06:46 | 12.90958 | 79.95500 | 6014 ft | 277 kts | 249° |
| 2026-05-04 06:46 | 12.90255 | 79.93655 | 6694 ft | 279 kts | 249° |
| 2026-05-04 06:46 | 12.89414 | 79.91870 | 7291 ft | 283 kts | 242° |
| 2026-05-04 06:46 | 12.88457 | 79.90076 | 7924 ft | 287 kts | 242° |
| 2026-05-04 06:48 | 12.81088 | 79.76300 | 10810 ft | 356 kts | 242° |
| 2026-05-04 06:48 | 12.79862 | 79.74111 | 11343 ft | 359 kts | 236° |
| 2026-05-04 06:49 | 12.78229 | 79.72158 | 11859 ft | 363 kts | 223° |
| 2026-05-04 06:50 | 12.61677 | 79.64816 | 15428 ft | 377 kts | 200° |
| 2026-05-04 06:51 | 12.59213 | 79.63854 | 15960 ft | 377 kts | 200° |
| 2026-05-04 06:51 | 12.56754 | 79.62898 | 16474 ft | 378 kts | 200° |
| 2026-05-04 06:51 | 12.54305 | 79.61945 | 16996 ft | 378 kts | 200° |
| 2026-05-04 06:51 | 12.51838 | 79.60987 | 17482 ft | 379 kts | 200° |
| 2026-05-04 06:52 | 12.49388 | 79.60034 | 17951 ft | 381 kts | 200° |
| 2026-05-04 06:52 | 12.46891 | 79.59061 | 18368 ft | 383 kts | 201° |
| 2026-05-04 06:52 | 12.44409 | 79.58094 | 18737 ft | 385 kts | 201° |
| 2026-05-04 06:52 | 12.41885 | 79.57113 | 19114 ft | 387 kts | 201° |
| 2026-05-04 06:53 | 12.39354 | 79.56131 | 19488 ft | 389 kts | 201° |
| 2026-05-04 06:53 | 12.36815 | 79.55144 | 19855 ft | 392 kts | 201° |
| 2026-05-04 06:53 | 12.34293 | 79.54162 | 20209 ft | 394 kts | 201° |
| 2026-05-04 06:53 | 12.31713 | 79.53160 | 20569 ft | 396 kts | 201° |
| 2026-05-04 06:54 | 12.29124 | 79.52158 | 20927 ft | 398 kts | 201° |
| 2026-05-04 06:54 | 12.26523 | 79.51148 | 21287 ft | 400 kts | 201° |
| 2026-05-04 06:54 | 12.23948 | 79.50148 | 21631 ft | 402 kts | 201° |
| 2026-05-04 06:54 | 12.21309 | 79.49123 | 21978 ft | 404 kts | 201° |
| 2026-05-04 06:55 | 12.18668 | 79.48097 | 22294 ft | 406 kts | 202° |
| 2026-05-04 06:55 | 12.16046 | 79.47076 | 22609 ft | 408 kts | 202° |
| 2026-05-04 06:55 | 12.13387 | 79.46041 | 22929 ft | 410 kts | 202° |
| 2026-05-04 06:55 | 12.10699 | 79.44995 | 23240 ft | 412 kts | 202° |
| 2026-05-04 06:56 | 12.08015 | 79.43952 | 23515 ft | 414 kts | 202° |
| 2026-05-04 06:57 | 11.88933 | 79.36560 | 25268 ft | 425 kts | 202° |
| 2026-05-04 06:58 | 11.86149 | 79.35481 | 25515 ft | 427 kts | 202° |
| 2026-05-04 06:58 | 11.83361 | 79.34401 | 25745 ft | 429 kts | 202° |
| 2026-05-04 06:58 | 11.80584 | 79.33327 | 25988 ft | 430 kts | 202° |
| 2026-05-04 06:58 | 11.77761 | 79.32235 | 26231 ft | 432 kts | 202° |
| 2026-05-04 06:59 | 11.74976 | 79.31159 | 26457 ft | 433 kts | 202° |
| 2026-05-04 06:59 | 11.72149 | 79.30064 | 26690 ft | 435 kts | 202° |
| 2026-05-04 06:59 | 11.69310 | 79.28964 | 26915 ft | 436 kts | 202° |
| 2026-05-04 06:59 | 11.66454 | 79.27859 | 27136 ft | 438 kts | 202° |
| 2026-05-04 07:01 | 11.50951 | 79.15033 | 28744 ft | 443 kts | 231° |